sensor_id;sensor_type;location;lat;lon;timestamp;P1;durP1;ratioP1;P2;durP2;ratioP2
47403;SDS011;33157;51.508;4.288;2023-04-06T00:04:46;26.48;;;15.55;;
47403;SDS011;33157;51.508;4.288;2023-04-06T00:09:47;26.52;;;14.20;;
47403;SDS011;33157;51.508;4.288;2023-04-06T00:14:49;26.48;;;14.55;;
47403;SDS011;33157;51.508;4.288;2023-04-06T00:19:52;26.10;;;15.20;;
47403;SDS011;33157;51.508;4.288;2023-04-06T00:24:53;26.75;;;13.88;;
47403;SDS011;33157;51.508;4.288;2023-04-06T00:29:56;25.73;;;13.75;;
47403;SDS011;33157;51.508;4.288;2023-04-06T00:35:05;27.55;;;13.57;;
47403;SDS011;33157;51.508;4.288;2023-04-06T00:40:14;24.20;;;13.65;;
47403;SDS011;33157;51.508;4.288;2023-04-06T00:45:27;25.95;;;14.70;;
47403;SDS011;33157;51.508;4.288;2023-04-06T00:50:34;22.42;;;13.00;;
47403;SDS011;33157;51.508;4.288;2023-04-06T00:55:36;23.10;;;13.40;;
47403;SDS011;33157;51.508;4.288;2023-04-06T01:00:44;22.83;;;14.48;;
47403;SDS011;33157;51.508;4.288;2023-04-06T01:05:45;23.05;;;13.30;;
47403;SDS011;33157;51.508;4.288;2023-04-06T01:10:52;29.27;;;14.30;;
47403;SDS011;33157;51.508;4.288;2023-04-06T01:15:59;26.67;;;13.82;;
47403;SDS011;33157;51.508;4.288;2023-04-06T01:21:01;32.03;;;14.82;;
47403;SDS011;33157;51.508;4.288;2023-04-06T01:26:02;26.92;;;13.30;;
47403;SDS011;33157;51.508;4.288;2023-04-06T01:31:06;26.63;;;13.65;;
47403;SDS011;33157;51.508;4.288;2023-04-06T01:36:09;23.02;;;13.77;;
47403;SDS011;33157;51.508;4.288;2023-04-06T01:41:18;27.48;;;14.95;;
47403;SDS011;33157;51.508;4.288;2023-04-06T01:46:26;21.85;;;13.75;;
47403;SDS011;33157;51.508;4.288;2023-04-06T01:51:38;24.25;;;12.45;;
47403;SDS011;33157;51.508;4.288;2023-04-06T01:56:42;24.08;;;12.85;;
47403;SDS011;33157;51.508;4.288;2023-04-06T02:01:46;27.10;;;13.32;;
47403;SDS011;33157;51.508;4.288;2023-04-06T02:06:48;22.48;;;12.95;;
47403;SDS011;33157;51.508;4.288;2023-04-06T02:11:51;26.90;;;13.43;;
47403;SDS011;33157;51.508;4.288;2023-04-06T02:16:53;27.58;;;13.93;;
47403;SDS011;33157;51.508;4.288;2023-04-06T02:21:54;27.60;;;13.37;;
47403;SDS011;33157;51.508;4.288;2023-04-06T02:26:56;26.37;;;13.17;;
47403;SDS011;33157;51.508;4.288;2023-04-06T02:31:57;21.85;;;12.55;;
47403;SDS011;33157;51.508;4.288;2023-04-06T02:37:06;23.67;;;12.23;;
47403;SDS011;33157;51.508;4.288;2023-04-06T02:42:08;24.27;;;12.63;;
47403;SDS011;33157;51.508;4.288;2023-04-06T02:47:11;21.20;;;13.55;;
47403;SDS011;33157;51.508;4.288;2023-04-06T02:52:15;22.45;;;13.05;;
47403;SDS011;33157;51.508;4.288;2023-04-06T02:57:24;19.98;;;11.52;;
47403;SDS011;33157;51.508;4.288;2023-04-06T03:02:26;24.75;;;13.13;;
47403;SDS011;33157;51.508;4.288;2023-04-06T03:07:43;22.63;;;13.32;;
47403;SDS011;33157;51.508;4.288;2023-04-06T03:12:47;23.88;;;12.88;;
47403;SDS011;33157;51.508;4.288;2023-04-06T03:17:58;21.90;;;13.18;;
47403;SDS011;33157;51.508;4.288;2023-04-06T03:23:00;23.73;;;13.98;;
47403;SDS011;33157;51.508;4.288;2023-04-06T03:28:01;22.23;;;13.35;;
47403;SDS011;33157;51.508;4.288;2023-04-06T03:33:02;27.35;;;14.05;;
47403;SDS011;33157;51.508;4.288;2023-04-06T03:38:04;22.33;;;12.13;;
47403;SDS011;33157;51.508;4.288;2023-04-06T03:43:09;22.17;;;13.32;;
47403;SDS011;33157;51.508;4.288;2023-04-06T03:48:30;21.90;;;12.27;;
47403;SDS011;33157;51.508;4.288;2023-04-06T03:53:33;26.52;;;14.05;;
47403;SDS011;33157;51.508;4.288;2023-04-06T03:58:35;21.13;;;12.00;;
47403;SDS011;33157;51.508;4.288;2023-04-06T04:03:36;24.33;;;14.35;;
47403;SDS011;33157;51.508;4.288;2023-04-06T04:08:42;20.17;;;13.23;;
47403;SDS011;33157;51.508;4.288;2023-04-06T04:13:43;24.52;;;14.10;;
47403;SDS011;33157;51.508;4.288;2023-04-06T04:18:51;25.85;;;14.77;;
47403;SDS011;33157;51.508;4.288;2023-04-06T04:23:52;27.90;;;15.45;;
47403;SDS011;33157;51.508;4.288;2023-04-06T04:29:00;23.80;;;14.48;;
47403;SDS011;33157;51.508;4.288;2023-04-06T04:34:02;31.73;;;15.13;;
47403;SDS011;33157;51.508;4.288;2023-04-06T04:39:16;24.55;;;15.43;;
47403;SDS011;33157;51.508;4.288;2023-04-06T04:44:17;31.40;;;18.15;;
47403;SDS011;33157;51.508;4.288;2023-04-06T04:49:19;29.02;;;18.10;;
47403;SDS011;33157;51.508;4.288;2023-04-06T04:54:21;30.35;;;17.48;;
47403;SDS011;33157;51.508;4.288;2023-04-06T04:59:22;30.67;;;17.27;;
47403;SDS011;33157;51.508;4.288;2023-04-06T05:04:31;33.13;;;18.67;;
47403;SDS011;33157;51.508;4.288;2023-04-06T05:09:34;30.35;;;17.80;;
47403;SDS011;33157;51.508;4.288;2023-04-06T05:14:36;30.80;;;18.63;;
47403;SDS011;33157;51.508;4.288;2023-04-06T05:19:39;29.45;;;17.95;;
47403;SDS011;33157;51.508;4.288;2023-04-06T05:24:41;28.25;;;17.60;;
47403;SDS011;33157;51.508;4.288;2023-04-06T05:29:53;28.98;;;18.10;;
47403;SDS011;33157;51.508;4.288;2023-04-06T05:35:10;32.70;;;18.92;;
47403;SDS011;33157;51.508;4.288;2023-04-06T05:40:18;29.77;;;18.88;;
47403;SDS011;33157;51.508;4.288;2023-04-06T05:45:20;31.15;;;18.02;;
47403;SDS011;33157;51.508;4.288;2023-04-06T05:50:27;27.73;;;17.48;;
47403;SDS011;33157;51.508;4.288;2023-04-06T05:55:29;29.25;;;17.00;;
47403;SDS011;33157;51.508;4.288;2023-04-06T06:00:36;28.38;;;18.27;;
47403;SDS011;33157;51.508;4.288;2023-04-06T06:05:37;37.47;;;19.45;;
47403;SDS011;33157;51.508;4.288;2023-04-06T06:10:39;29.77;;;19.50;;
47403;SDS011;33157;51.508;4.288;2023-04-06T06:15:41;37.80;;;20.98;;
47403;SDS011;33157;51.508;4.288;2023-04-06T06:20:44;34.33;;;21.30;;
47403;SDS011;33157;51.508;4.288;2023-04-06T06:25:50;40.35;;;22.80;;
47403;SDS011;33157;51.508;4.288;2023-04-06T06:31:04;39.53;;;23.67;;
47403;SDS011;33157;51.508;4.288;2023-04-06T06:36:09;49.28;;;25.98;;
47403;SDS011;33157;51.508;4.288;2023-04-06T06:41:11;39.42;;;25.50;;
47403;SDS011;33157;51.508;4.288;2023-04-06T06:46:19;36.95;;;21.42;;
47403;SDS011;33157;51.508;4.288;2023-04-06T06:51:21;36.83;;;22.25;;
47403;SDS011;33157;51.508;4.288;2023-04-06T06:56:22;38.85;;;23.05;;
47403;SDS011;33157;51.508;4.288;2023-04-06T07:01:25;37.28;;;22.95;;
47403;SDS011;33157;51.508;4.288;2023-04-06T07:06:28;43.50;;;26.85;;
47403;SDS011;33157;51.508;4.288;2023-04-06T07:11:30;59.38;;;30.30;;
47403;SDS011;33157;51.508;4.288;2023-04-06T07:16:34;50.95;;;29.23;;
47403;SDS011;33157;51.508;4.288;2023-04-06T07:21:43;42.65;;;22.27;;
47403;SDS011;33157;51.508;4.288;2023-04-06T07:26:45;32.53;;;18.15;;
47403;SDS011;33157;51.508;4.288;2023-04-06T07:31:49;25.27;;;16.67;;
47403;SDS011;33157;51.508;4.288;2023-04-06T07:36:52;25.02;;;16.95;;
47403;SDS011;33157;51.508;4.288;2023-04-06T07:41:55;24.52;;;14.70;;
47403;SDS011;33157;51.508;4.288;2023-04-06T07:46:57;24.57;;;15.37;;
47403;SDS011;33157;51.508;4.288;2023-04-06T07:52:02;21.42;;;14.02;;
47403;SDS011;33157;51.508;4.288;2023-04-06T07:57:09;21.50;;;13.55;;
47403;SDS011;33157;51.508;4.288;2023-04-06T08:02:15;21.50;;;12.52;;
47403;SDS011;33157;51.508;4.288;2023-04-06T08:07:17;19.55;;;11.45;;
47403;SDS011;33157;51.508;4.288;2023-04-06T08:12:20;29.67;;;13.70;;
47403;SDS011;33157;51.508;4.288;2023-04-06T08:17:24;18.80;;;12.07;;
47403;SDS011;33157;51.508;4.288;2023-04-06T08:22:33;16.55;;;9.77;;
47403;SDS011;33157;51.508;4.288;2023-04-06T08:27:35;17.27;;;8.98;;
47403;SDS011;33157;51.508;4.288;2023-04-06T08:32:53;11.88;;;7.97;;
47403;SDS011;33157;51.508;4.288;2023-04-06T08:37:56;11.23;;;7.30;;
47403;SDS011;33157;51.508;4.288;2023-04-06T08:43:14;14.48;;;8.43;;
47403;SDS011;33157;51.508;4.288;2023-04-06T08:48:16;11.32;;;7.88;;
47403;SDS011;33157;51.508;4.288;2023-04-06T08:53:21;9.45;;;5.68;;
47403;SDS011;33157;51.508;4.288;2023-04-06T08:58:24;10.53;;;6.73;;
47403;SDS011;33157;51.508;4.288;2023-04-06T09:03:29;9.55;;;6.40;;
47403;SDS011;33157;51.508;4.288;2023-04-06T09:08:33;10.05;;;6.57;;
47403;SDS011;33157;51.508;4.288;2023-04-06T09:13:46;13.32;;;6.65;;
47403;SDS011;33157;51.508;4.288;2023-04-06T09:19:05;13.88;;;6.43;;
47403;SDS011;33157;51.508;4.288;2023-04-06T09:24:07;11.20;;;6.80;;
47403;SDS011;33157;51.508;4.288;2023-04-06T09:29:09;11.80;;;7.13;;
47403;SDS011;33157;51.508;4.288;2023-04-06T09:34:20;9.05;;;6.55;;
47403;SDS011;33157;51.508;4.288;2023-04-06T09:39:23;10.00;;;6.65;;
47403;SDS011;33157;51.508;4.288;2023-04-06T09:44:29;17.42;;;7.68;;
47403;SDS011;33157;51.508;4.288;2023-04-06T09:49:31;13.43;;;8.25;;
47403;SDS011;33157;51.508;4.288;2023-04-06T09:54:39;13.68;;;7.90;;
47403;SDS011;33157;51.508;4.288;2023-04-06T09:59:44;13.27;;;8.73;;
47403;SDS011;33157;51.508;4.288;2023-04-06T10:05:02;14.73;;;9.38;;
47403;SDS011;33157;51.508;4.288;2023-04-06T10:10:08;15.88;;;9.05;;
47403;SDS011;33157;51.508;4.288;2023-04-06T10:15:11;15.52;;;9.27;;
47403;SDS011;33157;51.508;4.288;2023-04-06T10:26:05;13.43;;;9.32;;
47403;SDS011;33157;51.508;4.288;2023-04-06T10:31:14;13.65;;;8.57;;
47403;SDS011;33157;51.508;4.288;2023-04-06T10:36:40;16.08;;;8.93;;
47403;SDS011;33157;51.508;4.288;2023-04-06T10:41:52;15.55;;;8.55;;
47403;SDS011;33157;51.508;4.288;2023-04-06T10:47:05;14.77;;;8.75;;
47403;SDS011;33157;51.508;4.288;2023-04-06T10:52:23;14.57;;;8.75;;
47403;SDS011;33157;51.508;4.288;2023-04-06T10:57:28;13.68;;;7.88;;
47403;SDS011;33157;51.508;4.288;2023-04-06T11:02:34;15.82;;;10.55;;
47403;SDS011;33157;51.508;4.288;2023-04-06T11:07:51;15.85;;;9.38;;
47403;SDS011;33157;51.508;4.288;2023-04-06T11:12:54;15.43;;;8.73;;
47403;SDS011;33157;51.508;4.288;2023-04-06T11:18:16;13.50;;;9.38;;
47403;SDS011;33157;51.508;4.288;2023-04-06T11:23:29;16.30;;;9.35;;
47403;SDS011;33157;51.508;4.288;2023-04-06T11:28:30;16.40;;;10.40;;
47403;SDS011;33157;51.508;4.288;2023-04-06T11:33:38;16.30;;;10.60;;
47403;SDS011;33157;51.508;4.288;2023-04-06T11:38:43;17.23;;;10.88;;
47403;SDS011;33157;51.508;4.288;2023-04-06T11:43:47;17.65;;;12.45;;
47403;SDS011;33157;51.508;4.288;2023-04-06T11:48:49;21.58;;;13.30;;
47403;SDS011;33157;51.508;4.288;2023-04-06T11:53:58;19.50;;;13.53;;
47403;SDS011;33157;51.508;4.288;2023-04-06T11:59:01;22.95;;;13.25;;
47403;SDS011;33157;51.508;4.288;2023-04-06T12:04:10;19.58;;;13.25;;
47403;SDS011;33157;51.508;4.288;2023-04-06T12:09:20;22.13;;;14.57;;
47403;SDS011;33157;51.508;4.288;2023-04-06T12:14:23;21.58;;;15.50;;
47403;SDS011;33157;51.508;4.288;2023-04-06T12:19:25;23.95;;;14.98;;
47403;SDS011;33157;51.508;4.288;2023-04-06T12:24:27;23.77;;;15.10;;
47403;SDS011;33157;51.508;4.288;2023-04-06T12:29:30;20.35;;;14.10;;
47403;SDS011;33157;51.508;4.288;2023-04-06T12:34:38;20.70;;;14.13;;
47403;SDS011;33157;51.508;4.288;2023-04-06T12:39:42;21.98;;;15.18;;
47403;SDS011;33157;51.508;4.288;2023-04-06T12:44:50;18.10;;;12.93;;
47403;SDS011;33157;51.508;4.288;2023-04-06T12:49:54;21.65;;;14.23;;
47403;SDS011;33157;51.508;4.288;2023-04-06T12:55:03;20.48;;;13.55;;
47403;SDS011;33157;51.508;4.288;2023-04-06T13:00:06;21.35;;;13.85;;
47403;SDS011;33157;51.508;4.288;2023-04-06T13:05:10;22.17;;;14.10;;
47403;SDS011;33157;51.508;4.288;2023-04-06T13:10:17;20.88;;;13.50;;
47403;SDS011;33157;51.508;4.288;2023-04-06T13:15:19;17.02;;;13.27;;
47403;SDS011;33157;51.508;4.288;2023-04-06T13:20:29;19.85;;;11.85;;
47403;SDS011;33157;51.508;4.288;2023-04-06T13:25:31;14.55;;;10.63;;
47403;SDS011;33157;51.508;4.288;2023-04-06T13:30:34;13.38;;;8.60;;
47403;SDS011;33157;51.508;4.288;2023-04-06T13:35:37;11.45;;;7.57;;
47403;SDS011;33157;51.508;4.288;2023-04-06T13:40:55;11.05;;;7.70;;
47403;SDS011;33157;51.508;4.288;2023-04-06T13:45:59;15.55;;;10.15;;
47403;SDS011;33157;51.508;4.288;2023-04-06T13:51:08;17.02;;;11.15;;
47403;SDS011;33157;51.508;4.288;2023-04-06T13:56:24;12.10;;;9.02;;
47403;SDS011;33157;51.508;4.288;2023-04-06T14:01:31;64.68;;;54.03;;
47403;SDS011;33157;51.508;4.288;2023-04-06T14:06:33;20.98;;;17.45;;
47403;SDS011;33157;51.508;4.288;2023-04-06T14:11:35;16.63;;;13.15;;
47403;SDS011;33157;51.508;4.288;2023-04-06T14:16:45;26.17;;;18.50;;
47403;SDS011;33157;51.508;4.288;2023-04-06T14:21:49;30.40;;;21.88;;
47403;SDS011;33157;51.508;4.288;2023-04-06T14:26:50;16.98;;;12.15;;
47403;SDS011;33157;51.508;4.288;2023-04-06T14:31:52;17.38;;;13.55;;
47403;SDS011;33157;51.508;4.288;2023-04-06T14:37:18;14.95;;;12.32;;
47403;SDS011;33157;51.508;4.288;2023-04-06T14:42:51;20.30;;;12.93;;
47403;SDS011;33157;51.508;4.288;2023-04-06T14:48:07;20.55;;;13.13;;
47403;SDS011;33157;51.508;4.288;2023-04-06T14:53:12;17.17;;;13.60;;
47403;SDS011;33157;51.508;4.288;2023-04-06T14:58:20;20.50;;;14.47;;
47403;SDS011;33157;51.508;4.288;2023-04-06T15:03:41;19.27;;;14.57;;
47403;SDS011;33157;51.508;4.288;2023-04-06T15:08:43;20.63;;;15.87;;
47403;SDS011;33157;51.508;4.288;2023-04-06T15:18:48;25.08;;;15.93;;
47403;SDS011;33157;51.508;4.288;2023-04-06T15:24:02;19.85;;;15.98;;
47403;SDS011;33157;51.508;4.288;2023-04-06T15:29:06;21.95;;;16.23;;
47403;SDS011;33157;51.508;4.288;2023-04-06T15:34:15;26.60;;;18.48;;
47403;SDS011;33157;51.508;4.288;2023-04-06T15:39:16;28.13;;;20.92;;
47403;SDS011;33157;51.508;4.288;2023-04-06T15:44:26;33.42;;;21.23;;
47403;SDS011;33157;51.508;4.288;2023-04-06T15:49:27;37.42;;;23.15;;
47403;SDS011;33157;51.508;4.288;2023-04-06T15:54:33;27.98;;;18.70;;
47403;SDS011;33157;51.508;4.288;2023-04-06T15:59:40;26.42;;;18.55;;
47403;SDS011;33157;51.508;4.288;2023-04-06T16:04:54;25.23;;;18.85;;
47403;SDS011;33157;51.508;4.288;2023-04-06T16:10:01;30.25;;;18.60;;
47403;SDS011;33157;51.508;4.288;2023-04-06T16:15:08;27.63;;;19.48;;
47403;SDS011;33157;51.508;4.288;2023-04-06T16:20:13;33.90;;;20.85;;
47403;SDS011;33157;51.508;4.288;2023-04-06T16:30:21;31.10;;;20.35;;
47403;SDS011;33157;51.508;4.288;2023-04-06T16:35:25;29.35;;;20.15;;
47403;SDS011;33157;51.508;4.288;2023-04-06T16:40:30;29.58;;;20.45;;
47403;SDS011;33157;51.508;4.288;2023-04-06T16:45:31;27.55;;;19.33;;
47403;SDS011;33157;51.508;4.288;2023-04-06T16:50:37;28.80;;;20.92;;
47403;SDS011;33157;51.508;4.288;2023-04-06T16:55:39;32.03;;;18.88;;
47403;SDS011;33157;51.508;4.288;2023-04-06T17:00:43;29.40;;;19.25;;
47403;SDS011;33157;51.508;4.288;2023-04-06T17:05:51;29.33;;;17.17;;
47403;SDS011;33157;51.508;4.288;2023-04-06T17:10:53;33.60;;;13.77;;
47403;SDS011;33157;51.508;4.288;2023-04-06T17:15:56;30.50;;;10.98;;
47403;SDS011;33157;51.508;4.288;2023-04-06T17:21:02;18.85;;;9.38;;
47403;SDS011;33157;51.508;4.288;2023-04-06T17:26:12;18.98;;;8.85;;
47403;SDS011;33157;51.508;4.288;2023-04-06T17:31:20;18.70;;;8.70;;
47403;SDS011;33157;51.508;4.288;2023-04-06T17:36:24;18.25;;;7.63;;
47403;SDS011;33157;51.508;4.288;2023-04-06T17:41:28;19.85;;;8.50;;
47403;SDS011;33157;51.508;4.288;2023-04-06T17:46:33;39.70;;;9.50;;
47403;SDS011;33157;51.508;4.288;2023-04-06T17:51:35;20.57;;;10.67;;
47403;SDS011;33157;51.508;4.288;2023-04-06T17:56:36;19.60;;;10.17;;
47403;SDS011;33157;51.508;4.288;2023-04-06T18:01:43;22.30;;;12.80;;
47403;SDS011;33157;51.508;4.288;2023-04-06T18:06:55;24.63;;;13.88;;
47403;SDS011;33157;51.508;4.288;2023-04-06T18:11:58;28.43;;;15.47;;
47403;SDS011;33157;51.508;4.288;2023-04-06T18:17:03;29.02;;;15.05;;
47403;SDS011;33157;51.508;4.288;2023-04-06T18:22:13;27.58;;;15.55;;
47403;SDS011;33157;51.508;4.288;2023-04-06T18:27:19;38.97;;;17.35;;
47403;SDS011;33157;51.508;4.288;2023-04-06T18:32:22;33.15;;;15.18;;
47403;SDS011;33157;51.508;4.288;2023-04-06T18:37:40;31.90;;;15.95;;
47403;SDS011;33157;51.508;4.288;2023-04-06T18:42:42;35.00;;;16.15;;
47403;SDS011;33157;51.508;4.288;2023-04-06T18:47:56;29.50;;;12.68;;
47403;SDS011;33157;51.508;4.288;2023-04-06T18:53:01;31.67;;;14.10;;
47403;SDS011;33157;51.508;4.288;2023-04-06T18:58:14;36.97;;;12.40;;
47403;SDS011;33157;51.508;4.288;2023-04-06T19:03:15;27.92;;;13.18;;
47403;SDS011;33157;51.508;4.288;2023-04-06T19:08:23;31.48;;;12.90;;
47403;SDS011;33157;51.508;4.288;2023-04-06T19:13:28;28.45;;;12.82;;
47403;SDS011;33157;51.508;4.288;2023-04-06T19:18:37;29.05;;;12.00;;
47403;SDS011;33157;51.508;4.288;2023-04-06T19:23:45;32.28;;;14.48;;
47403;SDS011;33157;51.508;4.288;2023-04-06T19:29:00;31.60;;;15.55;;
47403;SDS011;33157;51.508;4.288;2023-04-06T19:34:07;36.58;;;17.15;;
47403;SDS011;33157;51.508;4.288;2023-04-06T19:39:13;33.38;;;16.92;;
47403;SDS011;33157;51.508;4.288;2023-04-06T19:44:19;32.95;;;16.92;;
47403;SDS011;33157;51.508;4.288;2023-04-06T19:49:20;41.75;;;17.60;;
47403;SDS011;33157;51.508;4.288;2023-04-06T19:54:29;35.17;;;14.07;;
47403;SDS011;33157;51.508;4.288;2023-04-06T19:59:46;40.88;;;15.35;;
47403;SDS011;33157;51.508;4.288;2023-04-06T20:04:53;37.40;;;14.80;;
47403;SDS011;33157;51.508;4.288;2023-04-06T20:10:04;26.65;;;14.43;;
47403;SDS011;33157;51.508;4.288;2023-04-06T20:15:09;25.08;;;12.73;;
47403;SDS011;33157;51.508;4.288;2023-04-06T20:20:15;33.92;;;12.73;;
47403;SDS011;33157;51.508;4.288;2023-04-06T20:25:20;27.17;;;11.60;;
47403;SDS011;33157;51.508;4.288;2023-04-06T20:30:34;27.85;;;11.43;;
47403;SDS011;33157;51.508;4.288;2023-04-06T20:35:44;21.90;;;11.60;;
47403;SDS011;33157;51.508;4.288;2023-04-06T20:40:49;17.42;;;8.50;;
47403;SDS011;33157;51.508;4.288;2023-04-06T20:46:06;20.05;;;8.00;;
47403;SDS011;33157;51.508;4.288;2023-04-06T20:51:12;15.60;;;6.50;;
47403;SDS011;33157;51.508;4.288;2023-04-06T20:56:24;20.13;;;6.68;;
47403;SDS011;33157;51.508;4.288;2023-04-06T21:01:26;21.75;;;7.20;;
47403;SDS011;33157;51.508;4.288;2023-04-06T21:06:28;11.38;;;5.30;;
47403;SDS011;33157;51.508;4.288;2023-04-06T21:11:33;10.93;;;4.85;;
47403;SDS011;33157;51.508;4.288;2023-04-06T21:21:44;10.43;;;3.83;;
47403;SDS011;33157;51.508;4.288;2023-04-06T21:26:49;18.20;;;5.15;;
47403;SDS011;33157;51.508;4.288;2023-04-06T21:31:50;12.07;;;4.55;;
47403;SDS011;33157;51.508;4.288;2023-04-06T21:37:00;16.13;;;5.68;;
47403;SDS011;33157;51.508;4.288;2023-04-06T21:42:02;11.73;;;3.13;;
47403;SDS011;33157;51.508;4.288;2023-04-06T21:47:11;8.20;;;3.28;;
47403;SDS011;33157;51.508;4.288;2023-04-06T21:52:12;14.38;;;4.60;;
47403;SDS011;33157;51.508;4.288;2023-04-06T22:02:16;15.82;;;6.03;;
47403;SDS011;33157;51.508;4.288;2023-04-06T22:07:23;15.90;;;6.93;;
47403;SDS011;33157;51.508;4.288;2023-04-06T22:12:26;20.85;;;8.52;;
47403;SDS011;33157;51.508;4.288;2023-04-06T22:17:42;18.63;;;10.43;;
47403;SDS011;33157;51.508;4.288;2023-04-06T22:22:43;27.45;;;15.10;;
47403;SDS011;33157;51.508;4.288;2023-04-06T22:27:45;38.42;;;18.75;;
47403;SDS011;33157;51.508;4.288;2023-04-06T22:32:49;40.72;;;20.30;;
47403;SDS011;33157;51.508;4.288;2023-04-06T22:37:50;40.88;;;22.33;;
47403;SDS011;33157;51.508;4.288;2023-04-06T22:42:52;43.70;;;21.80;;
47403;SDS011;33157;51.508;4.288;2023-04-06T22:47:55;42.67;;;22.92;;
47403;SDS011;33157;51.508;4.288;2023-04-06T22:52:59;41.72;;;24.02;;
47403;SDS011;33157;51.508;4.288;2023-04-06T22:58:05;51.38;;;24.77;;
47403;SDS011;33157;51.508;4.288;2023-04-06T23:03:12;42.35;;;22.27;;
47403;SDS011;33157;51.508;4.288;2023-04-06T23:08:16;51.70;;;23.77;;
47403;SDS011;33157;51.508;4.288;2023-04-06T23:13:17;47.60;;;22.92;;
47403;SDS011;33157;51.508;4.288;2023-04-06T23:18:24;44.55;;;23.05;;
47403;SDS011;33157;51.508;4.288;2023-04-06T23:23:28;56.40;;;25.70;;
47403;SDS011;33157;51.508;4.288;2023-04-06T23:28:40;59.65;;;25.52;;
47403;SDS011;33157;51.508;4.288;2023-04-06T23:33:44;53.85;;;24.30;;
47403;SDS011;33157;51.508;4.288;2023-04-06T23:38:57;65.60;;;26.43;;
47403;SDS011;33157;51.508;4.288;2023-04-06T23:44:04;53.58;;;25.20;;
47403;SDS011;33157;51.508;4.288;2023-04-06T23:49:05;48.70;;;20.55;;
47403;SDS011;33157;51.508;4.288;2023-04-06T23:54:19;61.08;;;22.20;;
47403;SDS011;33157;51.508;4.288;2023-04-06T23:59:20;58.35;;;22.88;;
